To NAV CANADA Home Page Login to a new session Search on AWWS site Feedback and Comments Disclaimer Vers la page française équivalente Tips FAQ What's new on the site To the Forecasts and Observations / NOTAM section To "File a Flight Plan" website Publications and other links Update of the User's profile FIC Telephone Numbers My Weather Data Folder Route Weather Data Regional Weather Data Local Weather Data To the Forecasts and Observations / NOTAM section
Request Generated 08/22/2017 at 01:35:26 UTC . Weather information available at that time is displayed.

METAR/TAF

EUREKA/NU    

METAR CWEU 220100Z 28006KT 15SM OVC055 05/01 A2993 RMK SC8 SLP137=
METAR CWEU 220000Z 26005KT 15SM FEW035 OVC055 05/00 A2993 RMK SC1SC8
SC TR SLP139=
METAR CWEU 212300Z 26004KT 15SM BKN055 OVC085 05/01 A2994 RMK SC7AC1
SLP140=

TAF CYEU 212338Z 2200/2202 ADVISORY OFFSITE 28007KT P6SM FEW007
BKN070
RMK NXT FCST WILL BE ISSUED AT 221045Z=
Your time UTC time
Weather data provided by Environment Canada and NAV CANADA